sensor_id;sensor_type;location;lat;lon;timestamp;P1;durP1;ratioP1;P2;durP2;ratioP2
8574;SDS011;4325;42.520;27.448;2024-03-06T00:02:10;9.80;;;3.80;;
8574;SDS011;4325;42.520;27.448;2024-03-06T00:04:38;22.20;;;4.77;;
8574;SDS011;4325;42.520;27.448;2024-03-06T00:07:05;10.20;;;4.37;;
8574;SDS011;4325;42.520;27.448;2024-03-06T00:09:32;6.57;;;4.57;;
8574;SDS011;4325;42.520;27.448;2024-03-06T00:11:59;7.30;;;3.70;;
8574;SDS011;4325;42.520;27.448;2024-03-06T00:14:26;7.30;;;3.97;;
8574;SDS011;4325;42.520;27.448;2024-03-06T00:16:54;9.63;;;4.47;;
8574;SDS011;4325;42.520;27.448;2024-03-06T00:19:21;8.53;;;4.00;;
8574;SDS011;4325;42.520;27.448;2024-03-06T00:21:50;7.37;;;3.87;;
8574;SDS011;4325;42.520;27.448;2024-03-06T00:24:17;9.57;;;3.80;;
8574;SDS011;4325;42.520;27.448;2024-03-06T00:26:44;8.27;;;4.53;;
8574;SDS011;4325;42.520;27.448;2024-03-06T00:29:12;7.80;;;4.00;;
8574;SDS011;4325;42.520;27.448;2024-03-06T00:31:42;9.03;;;3.70;;
8574;SDS011;4325;42.520;27.448;2024-03-06T00:34:09;6.50;;;3.37;;
8574;SDS011;4325;42.520;27.448;2024-03-06T00:36:40;5.37;;;3.67;;
8574;SDS011;4325;42.520;27.448;2024-03-06T00:39:10;6.77;;;3.73;;
8574;SDS011;4325;42.520;27.448;2024-03-06T00:41:39;7.43;;;3.87;;
8574;SDS011;4325;42.520;27.448;2024-03-06T00:44:06;6.00;;;3.50;;
8574;SDS011;4325;42.520;27.448;2024-03-06T00:46:33;7.17;;;4.10;;
8574;SDS011;4325;42.520;27.448;2024-03-06T00:49:01;7.77;;;3.70;;
8574;SDS011;4325;42.520;27.448;2024-03-06T00:51:28;7.07;;;4.27;;
8574;SDS011;4325;42.520;27.448;2024-03-06T00:53:55;8.90;;;4.43;;
8574;SDS011;4325;42.520;27.448;2024-03-06T00:56:24;9.20;;;3.93;;
8574;SDS011;4325;42.520;27.448;2024-03-06T00:58:51;6.20;;;3.80;;
8574;SDS011;4325;42.520;27.448;2024-03-06T01:01:18;8.77;;;4.17;;
8574;SDS011;4325;42.520;27.448;2024-03-06T01:03:45;5.63;;;3.87;;
8574;SDS011;4325;42.520;27.448;2024-03-06T01:06:12;7.03;;;3.97;;
8574;SDS011;4325;42.520;27.448;2024-03-06T01:08:39;8.40;;;3.97;;
8574;SDS011;4325;42.520;27.448;2024-03-06T01:11:07;7.43;;;4.17;;
8574;SDS011;4325;42.520;27.448;2024-03-06T01:13:35;13.77;;;4.07;;
8574;SDS011;4325;42.520;27.448;2024-03-06T01:16:02;8.27;;;4.00;;
8574;SDS011;4325;42.520;27.448;2024-03-06T01:18:30;6.53;;;3.80;;
8574;SDS011;4325;42.520;27.448;2024-03-06T01:20:57;8.77;;;4.50;;
8574;SDS011;4325;42.520;27.448;2024-03-06T01:23:24;7.13;;;4.13;;
8574;SDS011;4325;42.520;27.448;2024-03-06T01:25:51;7.30;;;4.27;;
8574;SDS011;4325;42.520;27.448;2024-03-06T01:28:18;9.83;;;4.97;;
8574;SDS011;4325;42.520;27.448;2024-03-06T01:30:47;5.50;;;3.63;;
8574;SDS011;4325;42.520;27.448;2024-03-06T01:33:14;11.83;;;5.23;;
8574;SDS011;4325;42.520;27.448;2024-03-06T01:35:41;9.57;;;4.77;;
8574;SDS011;4325;42.520;27.448;2024-03-06T01:38:08;10.63;;;4.10;;
8574;SDS011;4325;42.520;27.448;2024-03-06T01:40:35;15.57;;;5.23;;
8574;SDS011;4325;42.520;27.448;2024-03-06T01:43:02;12.07;;;4.90;;
8574;SDS011;4325;42.520;27.448;2024-03-06T01:45:30;6.87;;;4.93;;
8574;SDS011;4325;42.520;27.448;2024-03-06T01:47:59;16.60;;;5.43;;
8574;SDS011;4325;42.520;27.448;2024-03-06T01:50:26;8.20;;;4.50;;
8574;SDS011;4325;42.520;27.448;2024-03-06T01:52:53;11.53;;;5.07;;
8574;SDS011;4325;42.520;27.448;2024-03-06T01:55:20;8.97;;;4.60;;
8574;SDS011;4325;42.520;27.448;2024-03-06T01:57:47;9.80;;;5.40;;
8574;SDS011;4325;42.520;27.448;2024-03-06T02:00:14;9.67;;;5.23;;
8574;SDS011;4325;42.520;27.448;2024-03-06T02:02:42;10.67;;;4.60;;
8574;SDS011;4325;42.520;27.448;2024-03-06T02:05:11;9.33;;;5.17;;
8574;SDS011;4325;42.520;27.448;2024-03-06T02:07:39;13.40;;;5.70;;
8574;SDS011;4325;42.520;27.448;2024-03-06T02:10:07;6.53;;;4.70;;
8574;SDS011;4325;42.520;27.448;2024-03-06T02:12:35;9.03;;;5.23;;
8574;SDS011;4325;42.520;27.448;2024-03-06T02:15:03;10.87;;;5.40;;
8574;SDS011;4325;42.520;27.448;2024-03-06T02:17:31;12.73;;;5.37;;
8574;SDS011;4325;42.520;27.448;2024-03-06T02:19:59;11.73;;;5.50;;
8574;SDS011;4325;42.520;27.448;2024-03-06T02:22:28;9.00;;;4.73;;
8574;SDS011;4325;42.520;27.448;2024-03-06T02:24:55;7.97;;;5.67;;
8574;SDS011;4325;42.520;27.448;2024-03-06T02:27:22;12.13;;;4.90;;
8574;SDS011;4325;42.520;27.448;2024-03-06T02:29:49;12.10;;;5.17;;
8574;SDS011;4325;42.520;27.448;2024-03-06T02:32:16;6.53;;;4.70;;
8574;SDS011;4325;42.520;27.448;2024-03-06T02:34:43;11.70;;;5.90;;
8574;SDS011;4325;42.520;27.448;2024-03-06T02:37:10;8.20;;;5.33;;
8574;SDS011;4325;42.520;27.448;2024-03-06T02:39:39;12.23;;;4.87;;
8574;SDS011;4325;42.520;27.448;2024-03-06T02:42:06;13.20;;;5.53;;
8574;SDS011;4325;42.520;27.448;2024-03-06T02:44:33;13.43;;;4.73;;
8574;SDS011;4325;42.520;27.448;2024-03-06T02:47:00;8.00;;;4.80;;
8574;SDS011;4325;42.520;27.448;2024-03-06T02:49:27;10.90;;;5.50;;
8574;SDS011;4325;42.520;27.448;2024-03-06T02:51:54;10.97;;;5.73;;
8574;SDS011;4325;42.520;27.448;2024-03-06T02:54:22;7.60;;;4.33;;
8574;SDS011;4325;42.520;27.448;2024-03-06T02:56:52;11.53;;;4.60;;
8574;SDS011;4325;42.520;27.448;2024-03-06T02:59:19;8.33;;;4.53;;
8574;SDS011;4325;42.520;27.448;2024-03-06T03:01:46;12.27;;;4.97;;
8574;SDS011;4325;42.520;27.448;2024-03-06T03:04:13;10.10;;;4.40;;
8574;SDS011;4325;42.520;27.448;2024-03-06T03:06:40;9.23;;;5.17;;
8574;SDS011;4325;42.520;27.448;2024-03-06T03:09:07;7.50;;;4.87;;
8574;SDS011;4325;42.520;27.448;2024-03-06T03:11:37;8.37;;;4.90;;
8574;SDS011;4325;42.520;27.448;2024-03-06T03:14:05;7.17;;;4.77;;
8574;SDS011;4325;42.520;27.448;2024-03-06T03:16:32;13.70;;;5.57;;
8574;SDS011;4325;42.520;27.448;2024-03-06T03:19:00;7.47;;;4.43;;
8574;SDS011;4325;42.520;27.448;2024-03-06T03:21:28;11.83;;;4.80;;
8574;SDS011;4325;42.520;27.448;2024-03-06T03:23:55;8.10;;;4.73;;
8574;SDS011;4325;42.520;27.448;2024-03-06T03:26:22;10.93;;;5.60;;
8574;SDS011;4325;42.520;27.448;2024-03-06T03:28:49;11.60;;;5.23;;
8574;SDS011;4325;42.520;27.448;2024-03-06T03:31:17;13.30;;;4.60;;
8574;SDS011;4325;42.520;27.448;2024-03-06T03:33:44;12.70;;;4.90;;
8574;SDS011;4325;42.520;27.448;2024-03-06T03:36:11;9.43;;;5.53;;
8574;SDS011;4325;42.520;27.448;2024-03-06T03:38:38;11.80;;;5.60;;
8574;SDS011;4325;42.520;27.448;2024-03-06T03:41:07;10.47;;;5.07;;
8574;SDS011;4325;42.520;27.448;2024-03-06T03:43:34;10.40;;;5.17;;
8574;SDS011;4325;42.520;27.448;2024-03-06T03:46:01;9.33;;;5.07;;
8574;SDS011;4325;42.520;27.448;2024-03-06T03:48:30;10.80;;;5.40;;
8574;SDS011;4325;42.520;27.448;2024-03-06T03:51:00;8.10;;;4.53;;
8574;SDS011;4325;42.520;27.448;2024-03-06T03:53:28;9.50;;;4.70;;
8574;SDS011;4325;42.520;27.448;2024-03-06T03:55:55;9.50;;;5.47;;
8574;SDS011;4325;42.520;27.448;2024-03-06T03:58:22;11.23;;;5.93;;
8574;SDS011;4325;42.520;27.448;2024-03-06T04:00:49;12.63;;;4.80;;
8574;SDS011;4325;42.520;27.448;2024-03-06T04:03:18;13.97;;;5.33;;
8574;SDS011;4325;42.520;27.448;2024-03-06T04:05:47;16.23;;;5.10;;
8574;SDS011;4325;42.520;27.448;2024-03-06T04:08:14;10.70;;;4.90;;
8574;SDS011;4325;42.520;27.448;2024-03-06T04:10:42;11.00;;;4.83;;
8574;SDS011;4325;42.520;27.448;2024-03-06T04:13:10;10.50;;;5.13;;
8574;SDS011;4325;42.520;27.448;2024-03-06T04:15:37;10.40;;;5.33;;
8574;SDS011;4325;42.520;27.448;2024-03-06T04:18:05;8.93;;;5.17;;
8574;SDS011;4325;42.520;27.448;2024-03-06T04:20:32;8.57;;;4.80;;
8574;SDS011;4325;42.520;27.448;2024-03-06T04:23:00;13.47;;;6.00;;
8574;SDS011;4325;42.520;27.448;2024-03-06T04:25:27;14.33;;;5.10;;
8574;SDS011;4325;42.520;27.448;2024-03-06T04:27:54;8.23;;;4.50;;
8574;SDS011;4325;42.520;27.448;2024-03-06T04:30:22;6.83;;;4.80;;
8574;SDS011;4325;42.520;27.448;2024-03-06T04:32:50;10.93;;;5.50;;
8574;SDS011;4325;42.520;27.448;2024-03-06T04:35:17;9.87;;;5.50;;
8574;SDS011;4325;42.520;27.448;2024-03-06T04:37:44;12.13;;;5.93;;
8574;SDS011;4325;42.520;27.448;2024-03-06T04:40:12;12.37;;;5.93;;
8574;SDS011;4325;42.520;27.448;2024-03-06T04:42:44;9.90;;;5.50;;
8574;SDS011;4325;42.520;27.448;2024-03-06T04:45:14;9.00;;;5.47;;
8574;SDS011;4325;42.520;27.448;2024-03-06T04:47:42;11.70;;;7.30;;
8574;SDS011;4325;42.520;27.448;2024-03-06T04:50:09;14.97;;;6.20;;
8574;SDS011;4325;42.520;27.448;2024-03-06T04:52:38;12.17;;;6.57;;
8574;SDS011;4325;42.520;27.448;2024-03-06T04:55:04;12.97;;;6.33;;
8574;SDS011;4325;42.520;27.448;2024-03-06T04:57:34;18.90;;;6.70;;
8574;SDS011;4325;42.520;27.448;2024-03-06T05:00:01;10.13;;;4.73;;
8574;SDS011;4325;42.520;27.448;2024-03-06T05:02:31;14.90;;;6.70;;
8574;SDS011;4325;42.520;27.448;2024-03-06T05:05:00;12.63;;;5.60;;
8574;SDS011;4325;42.520;27.448;2024-03-06T05:07:27;9.73;;;5.67;;
8574;SDS011;4325;42.520;27.448;2024-03-06T05:09:54;10.53;;;5.03;;
8574;SDS011;4325;42.520;27.448;2024-03-06T05:12:22;7.67;;;5.13;;
8574;SDS011;4325;42.520;27.448;2024-03-06T05:14:50;10.97;;;5.20;;
8574;SDS011;4325;42.520;27.448;2024-03-06T05:17:18;9.23;;;5.00;;
8574;SDS011;4325;42.520;27.448;2024-03-06T05:19:45;13.37;;;5.20;;
8574;SDS011;4325;42.520;27.448;2024-03-06T05:22:13;9.47;;;6.10;;
8574;SDS011;4325;42.520;27.448;2024-03-06T05:24:40;12.70;;;5.47;;
8574;SDS011;4325;42.520;27.448;2024-03-06T05:27:07;13.00;;;6.33;;
8574;SDS011;4325;42.520;27.448;2024-03-06T05:29:35;12.43;;;5.97;;
8574;SDS011;4325;42.520;27.448;2024-03-06T05:32:07;10.20;;;5.63;;
8574;SDS011;4325;42.520;27.448;2024-03-06T05:34:34;11.67;;;6.43;;
8574;SDS011;4325;42.520;27.448;2024-03-06T05:37:01;8.03;;;5.47;;
8574;SDS011;4325;42.520;27.448;2024-03-06T05:39:30;8.87;;;5.03;;
8574;SDS011;4325;42.520;27.448;2024-03-06T05:41:59;10.80;;;5.77;;
8574;SDS011;4325;42.520;27.448;2024-03-06T05:44:28;14.07;;;5.83;;
8574;SDS011;4325;42.520;27.448;2024-03-06T05:46:55;13.43;;;6.13;;
8574;SDS011;4325;42.520;27.448;2024-03-06T05:49:23;14.63;;;6.30;;
8574;SDS011;4325;42.520;27.448;2024-03-06T05:51:51;10.53;;;5.57;;
8574;SDS011;4325;42.520;27.448;2024-03-06T05:54:19;9.73;;;6.10;;
8574;SDS011;4325;42.520;27.448;2024-03-06T05:56:47;13.60;;;6.03;;
8574;SDS011;4325;42.520;27.448;2024-03-06T05:59:15;13.77;;;6.47;;
8574;SDS011;4325;42.520;27.448;2024-03-06T06:01:42;13.07;;;6.30;;
8574;SDS011;4325;42.520;27.448;2024-03-06T06:04:09;11.20;;;6.33;;
8574;SDS011;4325;42.520;27.448;2024-03-06T06:06:38;10.77;;;6.53;;
8574;SDS011;4325;42.520;27.448;2024-03-06T06:09:05;12.00;;;6.43;;
8574;SDS011;4325;42.520;27.448;2024-03-06T06:11:37;9.70;;;6.60;;
8574;SDS011;4325;42.520;27.448;2024-03-06T06:14:05;10.73;;;6.27;;
8574;SDS011;4325;42.520;27.448;2024-03-06T06:16:35;15.17;;;6.80;;
8574;SDS011;4325;42.520;27.448;2024-03-06T06:19:03;16.83;;;7.43;;
8574;SDS011;4325;42.520;27.448;2024-03-06T06:21:30;17.03;;;6.53;;
8574;SDS011;4325;42.520;27.448;2024-03-06T06:23:59;14.67;;;5.80;;
8574;SDS011;4325;42.520;27.448;2024-03-06T06:26:26;14.97;;;7.77;;
8574;SDS011;4325;42.520;27.448;2024-03-06T06:28:53;14.10;;;6.87;;
8574;SDS011;4325;42.520;27.448;2024-03-06T06:31:20;10.73;;;6.50;;
8574;SDS011;4325;42.520;27.448;2024-03-06T06:33:47;13.70;;;6.67;;
8574;SDS011;4325;42.520;27.448;2024-03-06T06:36:14;16.70;;;8.23;;
8574;SDS011;4325;42.520;27.448;2024-03-06T06:38:42;13.13;;;8.03;;
8574;SDS011;4325;42.520;27.448;2024-03-06T06:41:10;13.27;;;6.97;;
8574;SDS011;4325;42.520;27.448;2024-03-06T06:43:37;13.03;;;7.43;;
8574;SDS011;4325;42.520;27.448;2024-03-06T06:46:05;11.63;;;6.30;;
8574;SDS011;4325;42.520;27.448;2024-03-06T06:48:32;14.70;;;7.07;;
8574;SDS011;4325;42.520;27.448;2024-03-06T06:50:59;15.47;;;7.30;;
8574;SDS011;4325;42.520;27.448;2024-03-06T06:53:27;13.03;;;7.53;;
8574;SDS011;4325;42.520;27.448;2024-03-06T06:55:55;16.57;;;8.17;;
8574;SDS011;4325;42.520;27.448;2024-03-06T06:58:24;13.47;;;7.47;;
8574;SDS011;4325;42.520;27.448;2024-03-06T07:00:52;11.30;;;7.07;;
8574;SDS011;4325;42.520;27.448;2024-03-06T07:03:19;12.13;;;7.60;;
8574;SDS011;4325;42.520;27.448;2024-03-06T07:05:48;17.80;;;8.63;;
8574;SDS011;4325;42.520;27.448;2024-03-06T07:08:15;20.50;;;7.70;;
8574;SDS011;4325;42.520;27.448;2024-03-06T07:10:42;14.77;;;6.70;;
8574;SDS011;4325;42.520;27.448;2024-03-06T07:13:09;13.60;;;7.10;;
8574;SDS011;4325;42.520;27.448;2024-03-06T07:15:37;13.07;;;7.33;;
8574;SDS011;4325;42.520;27.448;2024-03-06T07:18:05;13.43;;;7.90;;
8574;SDS011;4325;42.520;27.448;2024-03-06T07:20:33;18.57;;;6.73;;
8574;SDS011;4325;42.520;27.448;2024-03-06T07:23:01;13.20;;;6.83;;
8574;SDS011;4325;42.520;27.448;2024-03-06T07:25:28;14.27;;;7.60;;
8574;SDS011;4325;42.520;27.448;2024-03-06T07:27:55;13.60;;;6.77;;
8574;SDS011;4325;42.520;27.448;2024-03-06T07:30:22;10.23;;;6.50;;
8574;SDS011;4325;42.520;27.448;2024-03-06T07:32:51;14.20;;;7.30;;
8574;SDS011;4325;42.520;27.448;2024-03-06T07:35:18;15.37;;;7.00;;
8574;SDS011;4325;42.520;27.448;2024-03-06T07:37:45;16.83;;;7.30;;
8574;SDS011;4325;42.520;27.448;2024-03-06T07:40:12;19.30;;;7.37;;
8574;SDS011;4325;42.520;27.448;2024-03-06T07:42:39;16.13;;;7.83;;
8574;SDS011;4325;42.520;27.448;2024-03-06T07:45:06;15.93;;;7.50;;
8574;SDS011;4325;42.520;27.448;2024-03-06T07:47:34;12.57;;;7.10;;
8574;SDS011;4325;42.520;27.448;2024-03-06T07:50:04;13.33;;;7.97;;
8574;SDS011;4325;42.520;27.448;2024-03-06T07:52:33;15.97;;;7.50;;
8574;SDS011;4325;42.520;27.448;2024-03-06T07:55:01;16.83;;;7.70;;
8574;SDS011;4325;42.520;27.448;2024-03-06T07:57:28;14.60;;;7.70;;
8574;SDS011;4325;42.520;27.448;2024-03-06T07:59:55;22.93;;;7.47;;
8574;SDS011;4325;42.520;27.448;2024-03-06T08:02:22;14.27;;;7.60;;
8574;SDS011;4325;42.520;27.448;2024-03-06T08:04:49;17.47;;;7.60;;
8574;SDS011;4325;42.520;27.448;2024-03-06T08:07:18;14.87;;;7.93;;
8574;SDS011;4325;42.520;27.448;2024-03-06T08:09:45;19.27;;;7.63;;
8574;SDS011;4325;42.520;27.448;2024-03-06T08:12:12;21.97;;;8.30;;
8574;SDS011;4325;42.520;27.448;2024-03-06T08:14:39;17.53;;;7.63;;
8574;SDS011;4325;42.520;27.448;2024-03-06T08:17:06;17.97;;;7.40;;
8574;SDS011;4325;42.520;27.448;2024-03-06T08:19:33;13.20;;;7.93;;
8574;SDS011;4325;42.520;27.448;2024-03-06T08:22:00;10.77;;;6.83;;
8574;SDS011;4325;42.520;27.448;2024-03-06T08:24:29;12.00;;;7.90;;
8574;SDS011;4325;42.520;27.448;2024-03-06T08:26:56;15.67;;;7.00;;
8574;SDS011;4325;42.520;27.448;2024-03-06T08:29:23;13.97;;;6.83;;
8574;SDS011;4325;42.520;27.448;2024-03-06T08:31:50;10.43;;;7.20;;
8574;SDS011;4325;42.520;27.448;2024-03-06T08:34:18;12.33;;;8.07;;
8574;SDS011;4325;42.520;27.448;2024-03-06T08:36:47;12.60;;;7.73;;
8574;SDS011;4325;42.520;27.448;2024-03-06T08:39:14;14.30;;;8.33;;
8574;SDS011;4325;42.520;27.448;2024-03-06T08:41:43;10.93;;;8.10;;
8574;SDS011;4325;42.520;27.448;2024-03-06T08:44:10;10.57;;;7.70;;
8574;SDS011;4325;42.520;27.448;2024-03-06T08:46:37;11.30;;;7.00;;
8574;SDS011;4325;42.520;27.448;2024-03-06T08:49:04;11.93;;;7.20;;
8574;SDS011;4325;42.520;27.448;2024-03-06T08:51:31;12.43;;;7.50;;
8574;SDS011;4325;42.520;27.448;2024-03-06T08:53:58;13.97;;;7.30;;
8574;SDS011;4325;42.520;27.448;2024-03-06T08:56:25;10.30;;;6.97;;
8574;SDS011;4325;42.520;27.448;2024-03-06T08:58:54;8.02;;;6.38;;
8574;SDS011;4325;42.520;27.448;2024-03-06T09:01:21;10.57;;;6.75;;
8574;SDS011;4325;42.520;27.448;2024-03-06T09:03:48;9.13;;;6.97;;
8574;SDS011;4325;42.520;27.448;2024-03-06T09:06:15;14.00;;;7.53;;
8574;SDS011;4325;42.520;27.448;2024-03-06T09:08:42;10.53;;;7.70;;
8574;SDS011;4325;42.520;27.448;2024-03-06T09:11:09;13.13;;;7.63;;
8574;SDS011;4325;42.520;27.448;2024-03-06T09:13:37;10.40;;;7.70;;
8574;SDS011;4325;42.520;27.448;2024-03-06T09:16:06;13.20;;;7.90;;
8574;SDS011;4325;42.520;27.448;2024-03-06T09:18:34;12.80;;;8.13;;
8574;SDS011;4325;42.520;27.448;2024-03-06T09:21:01;15.17;;;8.17;;
8574;SDS011;4325;42.520;27.448;2024-03-06T09:23:28;15.50;;;7.70;;
8574;SDS011;4325;42.520;27.448;2024-03-06T09:25:57;10.13;;;7.07;;
8574;SDS011;4325;42.520;27.448;2024-03-06T09:28:24;10.52;;;7.07;;
8574;SDS011;4325;42.520;27.448;2024-03-06T09:30:51;13.50;;;8.43;;
8574;SDS011;4325;42.520;27.448;2024-03-06T09:33:20;10.68;;;7.72;;
8574;SDS011;4325;42.520;27.448;2024-03-06T09:35:48;9.85;;;6.90;;
8574;SDS011;4325;42.520;27.448;2024-03-06T09:38:15;10.15;;;7.03;;
8574;SDS011;4325;42.520;27.448;2024-03-06T09:40:42;7.22;;;6.50;;
8574;SDS011;4325;42.520;27.448;2024-03-06T09:43:09;10.15;;;6.70;;
8574;SDS011;4325;42.520;27.448;2024-03-06T09:45:36;12.52;;;6.90;;
8574;SDS011;4325;42.520;27.448;2024-03-06T09:48:04;7.22;;;6.38;;
8574;SDS011;4325;42.520;27.448;2024-03-06T09:50:33;9.23;;;5.97;;
8574;SDS011;4325;42.520;27.448;2024-03-06T09:53:06;8.90;;;6.20;;
8574;SDS011;4325;42.520;27.448;2024-03-06T09:55:37;11.50;;;6.60;;
8574;SDS011;4325;42.520;27.448;2024-03-06T09:58:05;8.20;;;6.55;;
8574;SDS011;4325;42.520;27.448;2024-03-06T10:00:33;6.97;;;6.25;;
8574;SDS011;4325;42.520;27.448;2024-03-06T10:03:01;7.57;;;6.53;;
8574;SDS011;4325;42.520;27.448;2024-03-06T10:05:30;10.02;;;6.50;;
8574;SDS011;4325;42.520;27.448;2024-03-06T10:08:00;8.48;;;6.53;;
8574;SDS011;4325;42.520;27.448;2024-03-06T10:10:29;14.73;;;6.47;;
8574;SDS011;4325;42.520;27.448;2024-03-06T10:12:56;10.82;;;6.30;;
8574;SDS011;4325;42.520;27.448;2024-03-06T10:15:25;9.55;;;6.50;;
8574;SDS011;4325;42.520;27.448;2024-03-06T10:20:41;9.93;;;5.97;;
8574;SDS011;4325;42.520;27.448;2024-03-06T10:23:09;11.35;;;6.07;;
8574;SDS011;4325;42.520;27.448;2024-03-06T10:25:36;12.27;;;6.90;;
8574;SDS011;4325;42.520;27.448;2024-03-06T10:28:04;6.70;;;6.00;;
8574;SDS011;4325;42.520;27.448;2024-03-06T10:30:33;7.65;;;5.78;;
8574;SDS011;4325;42.520;27.448;2024-03-06T10:33:01;7.80;;;6.13;;
8574;SDS011;4325;42.520;27.448;2024-03-06T10:35:29;9.70;;;5.90;;
8574;SDS011;4325;42.520;27.448;2024-03-06T10:37:57;8.98;;;5.47;;
8574;SDS011;4325;42.520;27.448;2024-03-06T10:40:27;11.02;;;6.20;;
8574;SDS011;4325;42.520;27.448;2024-03-06T10:42:58;8.02;;;6.05;;
8574;SDS011;4325;42.520;27.448;2024-03-06T10:45:27;7.10;;;5.90;;
8574;SDS011;4325;42.520;27.448;2024-03-06T10:48:05;10.88;;;6.85;;
8574;SDS011;4325;42.520;27.448;2024-03-06T10:50:33;9.13;;;6.05;;
8574;SDS011;4325;42.520;27.448;2024-03-06T10:53:04;7.38;;;5.82;;
8574;SDS011;4325;42.520;27.448;2024-03-06T10:55:35;10.00;;;6.25;;
8574;SDS011;4325;42.520;27.448;2024-03-06T10:58:03;9.90;;;6.03;;
8574;SDS011;4325;42.520;27.448;2024-03-06T11:00:33;11.27;;;7.18;;
8574;SDS011;4325;42.520;27.448;2024-03-06T11:03:03;8.75;;;6.28;;
8574;SDS011;4325;42.520;27.448;2024-03-06T11:05:34;14.70;;;6.57;;
8574;SDS011;4325;42.520;27.448;2024-03-06T11:08:06;9.90;;;6.95;;
8574;SDS011;4325;42.520;27.448;2024-03-06T11:10:35;9.55;;;7.57;;
8574;SDS011;4325;42.520;27.448;2024-03-06T11:13:03;7.18;;;6.47;;
8574;SDS011;4325;42.520;27.448;2024-03-06T11:15:35;8.95;;;6.70;;
8574;SDS011;4325;42.520;27.448;2024-03-06T11:24:14;14.02;;;7.78;;
8574;SDS011;4325;42.520;27.448;2024-03-06T11:26:45;9.52;;;6.13;;
8574;SDS011;4325;42.520;27.448;2024-03-06T11:29:15;10.50;;;7.60;;
8574;SDS011;4325;42.520;27.448;2024-03-06T11:32:02;11.70;;;6.50;;
8574;SDS011;4325;42.520;27.448;2024-03-06T11:34:33;11.05;;;7.25;;
8574;SDS011;4325;42.520;27.448;2024-03-06T11:37:03;12.52;;;7.53;;
8574;SDS011;4325;42.520;27.448;2024-03-06T11:39:37;8.05;;;6.63;;
8574;SDS011;4325;42.520;27.448;2024-03-06T11:42:06;9.30;;;6.90;;
8574;SDS011;4325;42.520;27.448;2024-03-06T11:44:34;13.90;;;6.75;;
8574;SDS011;4325;42.520;27.448;2024-03-06T11:47:03;9.65;;;6.38;;
8574;SDS011;4325;42.520;27.448;2024-03-06T11:49:33;10.43;;;6.85;;
8574;SDS011;4325;42.520;27.448;2024-03-06T11:52:02;7.63;;;6.63;;
8574;SDS011;4325;42.520;27.448;2024-03-06T11:54:30;8.20;;;7.40;;
8574;SDS011;4325;42.520;27.448;2024-03-06T11:57:00;11.77;;;6.57;;
8574;SDS011;4325;42.520;27.448;2024-03-06T11:59:29;11.20;;;7.03;;
8574;SDS011;4325;42.520;27.448;2024-03-06T12:01:57;7.90;;;6.37;;
8574;SDS011;4325;42.520;27.448;2024-03-06T12:04:27;10.43;;;7.23;;
8574;SDS011;4325;42.520;27.448;2024-03-06T12:06:56;12.37;;;7.07;;
8574;SDS011;4325;42.520;27.448;2024-03-06T12:09:24;14.77;;;7.10;;
8574;SDS011;4325;42.520;27.448;2024-03-06T12:11:52;8.83;;;6.33;;
8574;SDS011;4325;42.520;27.448;2024-03-06T12:14:21;8.97;;;6.47;;
8574;SDS011;4325;42.520;27.448;2024-03-06T12:16:54;10.87;;;6.43;;
8574;SDS011;4325;42.520;27.448;2024-03-06T12:19:22;8.90;;;7.13;;
8574;SDS011;4325;42.520;27.448;2024-03-06T12:21:50;7.53;;;6.40;;
8574;SDS011;4325;42.520;27.448;2024-03-06T12:24:19;7.78;;;6.07;;
8574;SDS011;4325;42.520;27.448;2024-03-06T12:26:46;9.02;;;5.72;;
8574;SDS011;4325;42.520;27.448;2024-03-06T12:29:16;8.90;;;6.30;;
8574;SDS011;4325;42.520;27.448;2024-03-06T12:31:46;9.82;;;6.07;;
8574;SDS011;4325;42.520;27.448;2024-03-06T12:34:14;9.82;;;6.40;;
8574;SDS011;4325;42.520;27.448;2024-03-06T12:36:42;13.85;;;7.35;;
8574;SDS011;4325;42.520;27.448;2024-03-06T12:39:09;7.95;;;6.63;;
8574;SDS011;4325;42.520;27.448;2024-03-06T12:41:39;10.75;;;6.53;;
8574;SDS011;4325;42.520;27.448;2024-03-06T12:44:06;9.88;;;6.75;;
8574;SDS011;4325;42.520;27.448;2024-03-06T12:46:33;9.43;;;6.97;;
8574;SDS011;4325;42.520;27.448;2024-03-06T12:49:02;13.37;;;7.07;;
8574;SDS011;4325;42.520;27.448;2024-03-06T12:51:29;10.87;;;6.70;;
8574;SDS011;4325;42.520;27.448;2024-03-06T12:53:57;14.65;;;6.15;;
8574;SDS011;4325;42.520;27.448;2024-03-06T12:56:25;11.35;;;6.90;;
8574;SDS011;4325;42.520;27.448;2024-03-06T12:58:52;11.48;;;6.38;;
8574;SDS011;4325;42.520;27.448;2024-03-06T13:01:19;9.10;;;6.70;;
8574;SDS011;4325;42.520;27.448;2024-03-06T13:03:47;8.95;;;6.43;;
8574;SDS011;4325;42.520;27.448;2024-03-06T13:06:15;8.47;;;6.83;;
8574;SDS011;4325;42.520;27.448;2024-03-06T13:08:43;14.23;;;7.10;;
8574;SDS011;4325;42.520;27.448;2024-03-06T13:11:10;9.00;;;6.43;;
8574;SDS011;4325;42.520;27.448;2024-03-06T13:13:37;9.77;;;7.50;;
8574;SDS011;4325;42.520;27.448;2024-03-06T13:16:04;11.77;;;7.07;;
8574;SDS011;4325;42.520;27.448;2024-03-06T13:18:31;13.27;;;7.00;;
8574;SDS011;4325;42.520;27.448;2024-03-06T13:20:58;12.43;;;6.73;;
8574;SDS011;4325;42.520;27.448;2024-03-06T13:23:28;11.70;;;5.93;;
8574;SDS011;4325;42.520;27.448;2024-03-06T13:25:56;14.10;;;6.30;;
8574;SDS011;4325;42.520;27.448;2024-03-06T13:28:24;13.00;;;6.43;;
8574;SDS011;4325;42.520;27.448;2024-03-06T13:30:51;10.90;;;6.20;;
8574;SDS011;4325;42.520;27.448;2024-03-06T13:33:18;8.00;;;6.00;;
8574;SDS011;4325;42.520;27.448;2024-03-06T13:35:45;8.93;;;6.03;;
8574;SDS011;4325;42.520;27.448;2024-03-06T13:38:12;8.30;;;6.40;;
8574;SDS011;4325;42.520;27.448;2024-03-06T13:40:40;8.57;;;6.60;;
8574;SDS011;4325;42.520;27.448;2024-03-06T13:43:08;13.27;;;6.87;;
8574;SDS011;4325;42.520;27.448;2024-03-06T13:45:35;8.90;;;6.13;;
8574;SDS011;4325;42.520;27.448;2024-03-06T13:48:02;9.37;;;6.17;;
8574;SDS011;4325;42.520;27.448;2024-03-06T13:50:40;11.20;;;6.47;;
8574;SDS011;4325;42.520;27.448;2024-03-06T13:53:07;11.67;;;7.03;;
8574;SDS011;4325;42.520;27.448;2024-03-06T13:55:34;11.00;;;6.13;;
8574;SDS011;4325;42.520;27.448;2024-03-06T13:58:02;7.10;;;5.77;;
8574;SDS011;4325;42.520;27.448;2024-03-06T14:00:30;10.03;;;5.00;;
8574;SDS011;4325;42.520;27.448;2024-03-06T14:02:57;8.93;;;5.90;;
8574;SDS011;4325;42.520;27.448;2024-03-06T14:05:24;8.70;;;5.40;;
8574;SDS011;4325;42.520;27.448;2024-03-06T14:07:51;12.77;;;5.53;;
8574;SDS011;4325;42.520;27.448;2024-03-06T14:10:19;8.60;;;5.30;;
8574;SDS011;4325;42.520;27.448;2024-03-06T14:12:46;10.70;;;5.27;;
8574;SDS011;4325;42.520;27.448;2024-03-06T14:15:18;8.33;;;5.03;;
8574;SDS011;4325;42.520;27.448;2024-03-06T14:17:45;10.97;;;5.23;;
8574;SDS011;4325;42.520;27.448;2024-03-06T14:20:12;6.70;;;5.03;;
8574;SDS011;4325;42.520;27.448;2024-03-06T14:22:40;10.80;;;5.63;;
8574;SDS011;4325;42.520;27.448;2024-03-06T14:25:08;7.03;;;5.17;;
8574;SDS011;4325;42.520;27.448;2024-03-06T14:27:35;14.17;;;6.13;;
8574;SDS011;4325;42.520;27.448;2024-03-06T14:30:03;7.33;;;5.67;;
8574;SDS011;4325;42.520;27.448;2024-03-06T14:32:33;11.93;;;5.17;;
8574;SDS011;4325;42.520;27.448;2024-03-06T14:35:01;8.80;;;5.53;;
8574;SDS011;4325;42.520;27.448;2024-03-06T14:37:28;8.93;;;5.93;;
8574;SDS011;4325;42.520;27.448;2024-03-06T14:39:55;14.50;;;7.00;;
8574;SDS011;4325;42.520;27.448;2024-03-06T14:42:22;12.43;;;6.10;;
8574;SDS011;4325;42.520;27.448;2024-03-06T14:44:49;10.73;;;5.03;;
8574;SDS011;4325;42.520;27.448;2024-03-06T14:47:16;11.63;;;5.33;;
8574;SDS011;4325;42.520;27.448;2024-03-06T14:49:45;10.93;;;5.23;;
8574;SDS011;4325;42.520;27.448;2024-03-06T14:52:12;13.70;;;5.10;;
8574;SDS011;4325;42.520;27.448;2024-03-06T14:54:39;8.00;;;5.30;;
8574;SDS011;4325;42.520;27.448;2024-03-06T14:57:08;12.47;;;5.47;;
8574;SDS011;4325;42.520;27.448;2024-03-06T14:59:35;12.87;;;5.90;;
8574;SDS011;4325;42.520;27.448;2024-03-06T15:02:03;16.03;;;6.90;;
8574;SDS011;4325;42.520;27.448;2024-03-06T15:04:30;15.40;;;5.63;;
8574;SDS011;4325;42.520;27.448;2024-03-06T15:06:58;8.90;;;5.30;;